NV37 weather

Eldorado Substation Heliport
Nelson, Nevada, United States

Public forecast

Using degrees Fahrenheit for public forecast. Weather courtesy of forecast.io.

METAR (pilot weather report)

Closest report is Henderson Executive Airport, 12.3 nm (22.7 km) NNW. Retrieved 2019/03/24 03:56 UTC (33 minutes ago):

KHND 240356Z AUTO 21011KT 10SM OVC090 17/03 A2999 RMK AO2 SLP148 T01670028 $

TAF (pilot weather forecast)

Forecast is more than 12 hours old.

Closest forecast is Henderson Executive Airport, 12.3 nm (22.7 km) NNW. Retrieved 2019/03/23 00:22 UTC (1 day ago):

TAF KHND 232320Z 2400/2424 22015G24KT P6SM FEW100 SCT200 FM240900 21013KT P6SM FEW100 FM241200 20008KT P6SM FEW100